createdAt,value
2022-09-22T00:01:39.216Z,43.34
2022-09-22T00:04:13.063Z,43.47
2022-09-22T00:06:47.446Z,43.38
2022-09-22T00:09:19.125Z,43.35
2022-09-22T00:11:50.216Z,43.48
2022-09-22T00:14:22.742Z,43.73
2022-09-22T00:16:54.262Z,43.70
2022-09-22T00:19:26.596Z,43.81
2022-09-22T00:21:56.943Z,43.78
2022-09-22T00:24:27.658Z,43.97
2022-09-22T00:26:58.221Z,43.92
2022-09-22T00:29:28.017Z,44.06
2022-09-22T00:31:57.767Z,44.09
2022-09-22T00:34:28.565Z,44.10
2022-09-22T00:36:58.344Z,44.20
2022-09-22T00:39:27.596Z,44.13
2022-09-22T00:41:55.987Z,44.08
2022-09-22T00:44:38.566Z,44.23
2022-09-22T00:47:29.210Z,44.24
2022-09-22T00:50:09.764Z,44.17
2022-09-22T00:52:46.295Z,44.28
2022-09-22T00:55:19.895Z,44.20
2022-09-22T00:57:50.973Z,44.29
2022-09-22T01:00:19.627Z,44.38
2022-09-22T01:02:50.774Z,44.40
2022-09-22T01:05:20.149Z,44.63
2022-09-22T01:07:50.010Z,44.67
2022-09-22T01:10:19.186Z,44.76
2022-09-22T01:12:58.291Z,44.67
2022-09-22T01:15:35.921Z,44.72
2022-09-22T01:18:18.983Z,44.59
2022-09-22T01:21:33.772Z,44.91
2022-09-22T01:25:03.780Z,44.86
2022-09-22T01:28:07.378Z,44.88
2022-09-22T01:30:42.749Z,44.98
2022-09-22T01:33:36.623Z,44.90
2022-09-22T01:36:21.273Z,44.92
2022-09-22T01:39:02.849Z,45.06
2022-09-22T01:41:52.984Z,45.06
2022-09-22T01:44:30.153Z,45.12
2022-09-22T01:47:07.571Z,45.19
2022-09-22T01:49:41.794Z,45.31
2022-09-22T01:52:16.662Z,45.40
2022-09-22T01:54:51.116Z,45.42
2022-09-22T01:57:27.882Z,45.43
2022-09-22T02:00:02.379Z,45.54
2022-09-22T02:02:38.367Z,45.54
2022-09-22T02:05:13.334Z,45.66
2022-09-22T02:07:46.980Z,45.69
2022-09-22T02:10:18.880Z,45.60
2022-09-22T02:12:47.565Z,45.74
2022-09-22T02:15:30.723Z,45.77
2022-09-22T02:18:08.289Z,45.92
2022-09-22T02:20:37.712Z,45.90
2022-09-22T02:23:06.442Z,45.99
2022-09-22T02:25:35.139Z,46.01
2022-09-22T02:28:03.916Z,45.96
2022-09-22T02:30:33.494Z,45.79
2022-09-22T02:33:03.955Z,45.88
2022-09-22T02:35:38.028Z,45.97
2022-09-22T02:38:12.657Z,46.09
2022-09-22T02:40:47.629Z,46.34
2022-09-22T02:43:23.975Z,46.31
2022-09-22T02:46:01.189Z,46.39
2022-09-22T02:48:38.130Z,46.44
2022-09-22T02:51:07.774Z,46.51
2022-09-22T02:53:37.456Z,46.60
2022-09-22T02:56:06.607Z,46.80
2022-09-22T02:58:34.983Z,46.86
2022-09-22T03:01:03.584Z,46.98
2022-09-22T03:03:33.576Z,46.93
2022-09-22T03:06:01.952Z,46.95
2022-09-22T03:08:30.415Z,46.89
2022-09-22T03:10:58.796Z,46.84
2022-09-22T03:13:27.173Z,46.67
2022-09-22T03:15:55.607Z,46.66
2022-09-22T03:18:24.089Z,46.40
2022-09-22T03:20:53.838Z,46.47
2022-09-22T03:23:22.215Z,46.39
2022-09-22T03:25:50.559Z,46.26
2022-09-22T03:28:19.396Z,46.22
2022-09-22T03:30:47.812Z,46.16
2022-09-22T03:33:16.331Z,45.95
2022-09-22T03:35:44.937Z,46.05
2022-09-22T03:38:14.679Z,46.01
2022-09-22T03:40:43.117Z,45.61
2022-09-22T03:43:16.459Z,45.84
2022-09-22T03:45:45.220Z,45.67
2022-09-22T03:48:13.834Z,45.74
2022-09-22T03:50:42.191Z,45.54
2022-09-22T03:53:10.580Z,45.52
2022-09-22T03:55:40.295Z,45.59
2022-09-22T03:58:08.674Z,45.37
2022-09-22T04:00:37.070Z,45.66
2022-09-22T04:03:05.654Z,45.89
2022-09-22T04:05:34.125Z,45.85
2022-09-22T04:08:03.094Z,46.24
2022-09-22T04:10:31.520Z,46.05
2022-09-22T04:13:01.244Z,46.07
2022-09-22T04:15:29.613Z,46.10
2022-09-22T04:17:58.564Z,46.09
2022-09-22T04:20:27.634Z,46.23
2022-09-22T04:22:56.087Z,46.22
2022-09-22T04:25:24.673Z,46.06
2022-09-22T04:27:53.044Z,45.95
2022-09-22T04:30:22.826Z,46.14
2022-09-22T04:32:51.215Z,46.12
2022-09-22T04:35:19.616Z,46.25
2022-09-22T04:37:48.006Z,46.42
2022-09-22T04:40:17.949Z,46.34
2022-09-22T04:42:47.303Z,46.22
2022-09-22T04:45:16.660Z,46.56
2022-09-22T04:47:48.102Z,46.59
2022-09-22T04:50:17.067Z,46.64
2022-09-22T04:52:46.834Z,46.70
2022-09-22T04:55:15.625Z,46.81
2022-09-22T04:57:44.184Z,46.74
2022-09-22T05:00:16.337Z,46.87
2022-09-22T05:02:46.365Z,46.86
2022-09-22T05:05:15.530Z,46.97
2022-09-22T05:07:45.912Z,47.01
2022-09-22T05:10:15.560Z,47.22
2022-09-22T05:12:44.587Z,47.21
2022-09-22T05:15:15.408Z,47.41
2022-09-22T05:17:49.498Z,47.50
2022-09-22T05:20:18.917Z,47.50
2022-09-22T05:22:48.310Z,47.52
2022-09-22T05:25:19.734Z,47.54
2022-09-22T05:27:49.864Z,47.70
2022-09-22T05:30:20.117Z,47.60
2022-09-22T05:32:51.039Z,47.54
2022-09-22T05:35:21.698Z,47.84
2022-09-22T05:37:52.315Z,47.91
2022-09-22T05:40:23.993Z,48.03
2022-09-22T05:42:54.640Z,48.02
2022-09-22T05:45:23.807Z,48.10
2022-09-22T05:47:54.128Z,47.90
2022-09-22T05:50:23.874Z,47.92
2022-09-22T05:52:52.693Z,47.82
2022-09-22T05:55:21.176Z,47.95
2022-09-22T05:57:49.554Z,47.82
2022-09-22T06:00:18.313Z,47.54
2022-09-22T06:02:46.710Z,47.61
2022-09-22T06:05:19.355Z,47.48
2022-09-22T06:07:49.079Z,47.23
2022-09-22T06:10:17.765Z,47.19
2022-09-22T06:12:46.559Z,47.10
2022-09-22T06:15:14.957Z,47.11
2022-09-22T06:17:43.424Z,46.99
2022-09-22T06:20:12.036Z,46.91
2022-09-22T06:22:41.834Z,46.74
2022-09-22T06:25:11.048Z,46.69
2022-09-22T06:27:40.092Z,46.53
2022-09-22T06:30:11.277Z,46.22
2022-09-22T06:32:43.754Z,46.21
2022-09-22T06:35:12.164Z,45.81
2022-09-22T06:37:41.935Z,45.57
2022-09-22T06:40:16.661Z,45.19
2022-09-22T06:42:46.456Z,45.30
2022-09-22T06:45:15.165Z,45.22
2022-09-22T06:47:43.853Z,45.40
2022-09-22T06:50:12.224Z,45.17
2022-09-22T06:52:41.979Z,44.93
2022-09-22T06:55:11.106Z,45.07
2022-09-22T06:57:39.511Z,44.74
2022-09-22T07:00:09.649Z,44.71
2022-09-22T07:02:38.325Z,44.62
2022-09-22T07:05:08.357Z,44.42
2022-09-22T07:07:36.916Z,44.45
2022-09-22T07:10:08.209Z,44.20
2022-09-22T07:12:36.653Z,44.15
2022-09-22T07:15:05.975Z,43.89
2022-09-22T07:17:36.029Z,43.78
2022-09-22T07:20:06.303Z,43.71
2022-09-22T07:22:34.712Z,43.42
2022-09-22T07:25:03.390Z,43.35
2022-09-22T07:27:33.192Z,43.19
2022-09-22T07:30:01.600Z,43.24
2022-09-22T07:32:35.168Z,42.98
2022-09-22T07:35:03.635Z,42.63
2022-09-22T07:37:33.301Z,42.53
2022-09-22T07:40:02.572Z,42.28
2022-09-22T07:42:32.401Z,42.25
2022-09-22T07:45:16.263Z,42.01
2022-09-22T07:48:03.099Z,42.23
2022-09-22T07:50:32.052Z,42.21
2022-09-22T07:53:00.447Z,42.21
2022-09-22T07:55:28.971Z,42.06
2022-09-22T07:58:01.160Z,41.93
2022-09-22T08:00:33.164Z,41.46
2022-09-22T08:03:04.209Z,41.24
2022-09-22T08:05:32.595Z,41.38
2022-09-22T08:08:02.587Z,41.34
2022-09-22T08:10:32.330Z,41.29
2022-09-22T08:13:04.658Z,41.00
2022-09-22T08:15:33.064Z,40.75
2022-09-22T08:18:03.951Z,39.90
2022-09-22T08:20:32.413Z,39.87
2022-09-22T08:23:03.285Z,39.44
2022-09-22T08:25:32.041Z,39.73
2022-09-22T08:28:04.574Z,39.75
2022-09-22T08:30:32.949Z,39.69
2022-09-22T08:33:01.798Z,38.85
2022-09-22T08:35:30.197Z,39.04
2022-09-22T08:37:58.671Z,38.80
2022-09-22T08:40:27.144Z,39.05
2022-09-22T08:42:55.761Z,39.30
2022-09-22T08:45:34.501Z,39.60
2022-09-22T08:48:27.913Z,39.75
2022-09-22T08:51:23.868Z,39.67
2022-09-22T08:53:54.195Z,39.86
2022-09-22T08:56:30.584Z,39.78
2022-09-22T08:59:09.188Z,39.76
2022-09-22T09:02:20.056Z,39.57
2022-09-22T09:06:01.486Z,39.58
2022-09-22T09:09:23.052Z,39.83
2022-09-22T09:12:14.103Z,39.46
2022-09-22T09:15:10.566Z,39.75
2022-09-22T09:17:43.920Z,39.44
2022-09-22T09:20:19.713Z,39.54
2022-09-22T09:22:55.777Z,39.31
2022-09-22T09:25:36.815Z,39.32
2022-09-22T09:28:08.190Z,38.84
2022-09-22T09:30:45.895Z,38.50
2022-09-22T09:33:27.639Z,38.50
2022-09-22T09:35:57.195Z,38.15
2022-09-22T09:38:30.888Z,38.11
2022-09-22T09:41:12.952Z,38.17
2022-09-22T09:43:42.849Z,37.90
2022-09-22T09:46:26.875Z,37.91
2022-09-22T09:49:08.975Z,38.48
2022-09-22T09:51:40.552Z,37.85
2022-09-22T09:54:14.585Z,37.68
2022-09-22T09:57:11.891Z,37.92
2022-09-22T09:59:59.832Z,37.76
2022-09-22T10:02:31.798Z,36.89
2022-09-22T10:05:06.215Z,36.72
2022-09-22T10:07:44.140Z,37.34
2022-09-22T10:10:34.148Z,37.43
2022-09-22T10:13:27.315Z,37.37
2022-09-22T10:16:22.764Z,37.05
2022-09-22T10:19:02.923Z,37.07
2022-09-22T10:21:32.684Z,36.99
2022-09-22T10:24:02.189Z,36.63
2022-09-22T10:26:32.668Z,36.63
2022-09-22T10:29:19.201Z,36.70
2022-09-22T10:32:16.136Z,36.80
2022-09-22T10:34:47.570Z,36.36
2022-09-22T10:37:20.997Z,36.00
2022-09-22T10:39:51.987Z,36.04
2022-09-22T10:42:33.511Z,36.12
2022-09-22T10:45:07.335Z,36.07
2022-09-22T10:47:59.025Z,36.04
2022-09-22T10:50:57.323Z,35.22
2022-09-22T10:53:57.701Z,33.13
2022-09-22T10:56:35.203Z,33.31
2022-09-22T10:59:42.613Z,36.42
2022-09-22T11:02:58.112Z,38.52
2022-09-22T11:06:01.606Z,40.02
2022-09-22T11:08:54.700Z,41.62
2022-09-22T11:11:52.116Z,42.40
2022-09-22T11:14:36.513Z,43.63
2022-09-22T11:17:21.120Z,44.50
2022-09-22T11:20:09.609Z,45.72
2022-09-22T11:23:18.201Z,46.76
2022-09-22T11:26:02.978Z,48.22
2022-09-22T11:28:57.240Z,49.13
2022-09-22T11:31:46.727Z,50.03
2022-09-22T11:34:57.844Z,49.42
2022-09-22T11:37:46.134Z,49.06
2022-09-22T11:40:34.193Z,47.64
2022-09-22T11:43:28.618Z,45.94
2022-09-22T11:46:07.078Z,43.81
2022-09-22T11:48:56.772Z,41.55
2022-09-22T11:51:53.663Z,40.89
2022-09-22T11:55:15.444Z,40.84
2022-09-22T11:57:48.469Z,39.56
2022-09-22T12:00:19.496Z,39.60
2022-09-22T12:03:01.787Z,39.85
2022-09-22T12:05:39.432Z,40.64
2022-09-22T12:08:13.101Z,40.12
2022-09-22T12:10:44.680Z,39.06
2022-09-22T12:13:18.486Z,38.83
2022-09-22T12:16:00.291Z,38.06
2022-09-22T12:18:43.574Z,37.26
2022-09-22T12:21:39.602Z,36.83
2022-09-22T12:24:11.854Z,35.40
2022-09-22T12:26:43.177Z,31.22
2022-09-22T12:29:27.769Z,30.83
2022-09-22T12:31:59.209Z,31.00
2022-09-22T12:34:34.124Z,31.10
2022-09-22T12:37:14.231Z,31.56
2022-09-22T12:39:46.098Z,31.62
2022-09-22T12:42:23.145Z,31.67
2022-09-22T12:44:56.248Z,31.88
2022-09-22T12:47:36.533Z,31.34
2022-09-22T12:50:29.470Z,31.02
2022-09-22T12:53:06.295Z,30.95
2022-09-22T12:55:41.968Z,31.02
2022-09-22T12:58:43.925Z,30.62
2022-09-22T13:01:35.229Z,30.17
2022-09-22T13:04:18.176Z,30.37
2022-09-22T13:06:59.294Z,30.86
2022-09-22T13:09:30.241Z,31.26
2022-09-22T13:12:28.217Z,30.85
2022-09-22T13:15:23.454Z,30.42
2022-09-22T13:17:52.554Z,29.13
2022-09-22T13:20:31.261Z,28.72
2022-09-22T13:23:07.704Z,27.78
2022-09-22T13:25:36.070Z,26.68
2022-09-22T13:28:15.333Z,24.95
2022-09-22T13:30:45.674Z,23.86
2022-09-22T13:33:23.169Z,24.51
2022-09-22T13:35:59.981Z,23.82
2022-09-22T13:38:31.070Z,23.05
2022-09-22T13:40:59.716Z,22.75
2022-09-22T13:43:34.514Z,22.70
2022-09-22T13:46:04.518Z,22.35
2022-09-22T13:48:37.807Z,22.00
2022-09-22T13:51:09.674Z,21.40
2022-09-22T13:53:43.160Z,20.91
2022-09-22T13:56:21.573Z,21.29
2022-09-22T13:58:52.890Z,20.73
2022-09-22T14:01:23.705Z,21.35
2022-09-22T14:03:53.552Z,22.11
2022-09-22T14:06:24.549Z,22.03
2022-09-22T14:08:56.216Z,22.59
2022-09-22T14:11:27.908Z,23.58
2022-09-22T14:14:01.554Z,23.65
2022-09-22T14:16:35.601Z,24.37
2022-09-22T14:19:09.515Z,24.68
2022-09-22T14:21:50.278Z,24.53
2022-09-22T14:24:20.756Z,24.44
2022-09-22T14:26:52.339Z,24.83
2022-09-22T14:29:26.228Z,24.58
2022-09-22T14:32:02.879Z,25.26
2022-09-22T14:34:34.118Z,25.52
2022-09-22T14:37:16.932Z,25.77
2022-09-22T14:39:47.050Z,26.32
2022-09-22T14:42:22.997Z,27.06
2022-09-22T14:44:52.631Z,28.12
2022-09-22T14:47:26.440Z,28.94
2022-09-22T14:50:18.855Z,29.03
2022-09-22T14:52:56.928Z,29.26
2022-09-22T14:55:35.958Z,29.68
2022-09-22T14:58:08.947Z,29.86
2022-09-22T15:00:55.051Z,30.04
2022-09-22T15:03:28.131Z,30.27
2022-09-22T15:06:06.386Z,30.54
2022-09-22T15:08:34.952Z,30.68
2022-09-22T15:11:05.254Z,30.79
2022-09-22T15:13:41.694Z,30.60
2022-09-22T15:16:39.079Z,30.71
2022-09-22T15:19:11.918Z,31.00
2022-09-22T15:21:46.106Z,31.04
2022-09-22T15:24:15.772Z,31.29
2022-09-22T15:26:46.626Z,31.26
2022-09-22T15:29:15.984Z,31.17
2022-09-22T15:31:44.529Z,31.73
2022-09-22T15:34:14.666Z,31.80
2022-09-22T15:36:47.795Z,31.44
2022-09-22T15:39:22.572Z,31.75
2022-09-22T15:41:53.803Z,31.94
2022-09-22T15:44:22.211Z,32.10
2022-09-22T15:46:54.478Z,31.75
2022-09-22T15:49:27.129Z,32.01
2022-09-22T15:51:56.654Z,32.14
2022-09-22T15:54:26.386Z,32.23
2022-09-22T15:56:58.220Z,32.23
2022-09-22T15:59:28.723Z,32.09
2022-09-22T16:01:57.501Z,32.39
2022-09-22T16:04:33.732Z,32.57
2022-09-22T16:07:05.681Z,32.65
2022-09-22T16:09:34.409Z,32.53
2022-09-22T16:12:07.597Z,32.67
2022-09-22T16:14:36.807Z,32.86
2022-09-22T16:17:05.423Z,32.69
2022-09-22T16:19:33.741Z,32.97
2022-09-22T16:22:02.825Z,32.82
2022-09-22T16:24:31.169Z,33.04
2022-09-22T16:26:59.744Z,33.03
2022-09-22T16:29:29.489Z,33.17
2022-09-22T16:31:57.967Z,33.12
2022-09-22T16:34:26.372Z,33.10
2022-09-22T16:36:54.817Z,33.19
2022-09-22T16:39:23.194Z,33.30
2022-09-22T16:41:51.508Z,33.37
2022-09-22T16:44:22.024Z,33.60
2022-09-22T16:46:51.779Z,33.85
2022-09-22T16:49:20.914Z,34.29
2022-09-22T16:51:51.024Z,34.49
2022-09-22T16:54:20.169Z,34.66
2022-09-22T16:56:50.731Z,35.16
2022-09-22T16:59:21.836Z,35.36
2022-09-22T17:01:53.108Z,35.73
2022-09-22T17:04:21.791Z,35.82
2022-09-22T17:06:50.662Z,35.80
2022-09-22T17:09:19.727Z,36.06
2022-09-22T17:11:49.300Z,36.17
2022-09-22T17:14:21.194Z,35.90
2022-09-22T17:16:53.575Z,36.14
2022-09-22T17:19:24.413Z,36.19
2022-09-22T17:21:55.448Z,36.35
2022-09-22T17:24:25.460Z,36.30
2022-09-22T17:26:56.597Z,36.47
2022-09-22T17:29:27.578Z,36.56
2022-09-22T17:32:00.001Z,36.66
2022-09-22T17:34:30.618Z,36.82
2022-09-22T17:36:59.521Z,36.72
2022-09-22T17:39:30.010Z,36.91
2022-09-22T17:41:58.704Z,36.93
2022-09-22T17:44:30.899Z,36.96
2022-09-22T17:47:18.179Z,37.00
2022-09-22T17:50:04.140Z,37.12
2022-09-22T17:52:49.807Z,37.28
2022-09-22T17:55:25.437Z,37.09
2022-09-22T17:57:56.366Z,37.45
2022-09-22T18:00:26.174Z,37.40
2022-09-22T18:02:56.712Z,37.39
2022-09-22T18:05:27.213Z,37.52
2022-09-22T18:07:58.526Z,37.48
2022-09-22T18:10:30.999Z,37.59
2022-09-22T18:12:59.768Z,37.52
2022-09-22T18:15:28.461Z,37.45
2022-09-22T18:17:58.798Z,37.50
2022-09-22T18:20:27.931Z,37.46
2022-09-22T18:22:57.911Z,37.72
2022-09-22T18:25:28.459Z,37.56
2022-09-22T18:27:57.911Z,37.77
2022-09-22T18:30:26.592Z,37.71
2022-09-22T18:32:55.064Z,37.83
2022-09-22T18:35:32.111Z,37.91
2022-09-22T18:38:01.232Z,37.91
2022-09-22T18:40:30.103Z,37.89
2022-09-22T18:42:58.585Z,37.86
2022-09-22T18:45:27.707Z,38.02
2022-09-22T18:48:01.235Z,37.92
2022-09-22T18:50:36.231Z,38.01
2022-09-22T18:53:04.674Z,37.97
2022-09-22T18:55:33.033Z,37.83
2022-09-22T18:58:01.425Z,37.96
2022-09-22T19:00:32.613Z,37.98
2022-09-22T19:03:01.582Z,38.10
2022-09-22T19:05:31.687Z,38.26
2022-09-22T19:08:00.883Z,38.32
2022-09-22T19:10:29.580Z,38.24
2022-09-22T19:13:00.139Z,38.37
2022-09-22T19:15:30.532Z,38.53
2022-09-22T19:17:58.981Z,38.87
2022-09-22T19:20:28.545Z,39.18
2022-09-22T19:22:59.228Z,39.37
2022-09-22T19:25:27.843Z,39.12
2022-09-22T19:27:57.288Z,39.31
2022-09-22T19:30:29.718Z,39.32
2022-09-22T19:33:00.266Z,39.28
2022-09-22T19:35:30.042Z,39.43
2022-09-22T19:37:59.875Z,39.68
2022-09-22T19:40:28.536Z,39.88
2022-09-22T19:42:57.361Z,39.89
2022-09-22T19:45:26.939Z,39.91
2022-09-22T19:47:57.012Z,39.89
2022-09-22T19:50:25.654Z,39.67
2022-09-22T19:52:54.238Z,39.69
2022-09-22T19:55:24.130Z,39.79
2022-09-22T19:57:54.095Z,39.92
2022-09-22T20:00:26.151Z,40.00
2022-09-22T20:02:58.869Z,39.85
2022-09-22T20:05:30.263Z,40.04
2022-09-22T20:07:58.687Z,39.82
2022-09-22T20:10:28.891Z,39.90
2022-09-22T20:12:57.438Z,40.02
2022-09-22T20:15:27.031Z,40.04
2022-09-22T20:17:55.962Z,40.14
2022-09-22T20:20:26.997Z,40.34
2022-09-22T20:23:00.535Z,40.40
2022-09-22T20:25:33.374Z,40.61
2022-09-22T20:28:01.818Z,40.42
2022-09-22T20:30:30.679Z,40.55
2022-09-22T20:32:59.368Z,40.75
2022-09-22T20:35:27.927Z,40.79
2022-09-22T20:37:59.359Z,40.86
2022-09-22T20:40:29.260Z,40.64
2022-09-22T20:42:58.091Z,40.86
2022-09-22T20:45:27.298Z,40.88
2022-09-22T20:47:56.183Z,40.94
2022-09-22T20:50:24.723Z,40.97
2022-09-22T20:52:53.719Z,41.12
2022-09-22T20:55:22.809Z,41.16
2022-09-22T20:57:52.716Z,40.85
2022-09-22T21:00:21.355Z,41.15
2022-09-22T21:02:54.474Z,41.04
2022-09-22T21:05:22.992Z,41.18
2022-09-22T21:08:12.642Z,41.29
2022-09-22T21:10:40.024Z,41.30
2022-09-22T21:13:09.787Z,41.54
2022-09-22T21:15:38.591Z,41.46
2022-09-22T21:18:07.122Z,41.55
2022-09-22T21:20:35.420Z,41.44
2022-09-22T21:23:03.784Z,41.61
2022-09-22T21:25:32.243Z,41.59
2022-09-22T21:28:00.591Z,41.69
2022-09-22T21:30:30.590Z,41.71
2022-09-22T21:32:58.911Z,41.94
2022-09-22T21:35:27.294Z,41.91
2022-09-22T21:37:56.893Z,42.01
2022-09-22T21:40:25.816Z,42.01
2022-09-22T21:42:54.178Z,42.16
2022-09-22T21:45:22.589Z,42.21
2022-09-22T21:47:52.931Z,42.28
2022-09-22T21:50:23.108Z,42.24
2022-09-22T21:52:51.801Z,42.21
2022-09-22T21:55:20.178Z,42.39
2022-09-22T21:57:48.558Z,42.40
2022-09-22T22:00:22.007Z,42.57
2022-09-22T22:03:19.314Z,42.52
2022-09-22T22:05:47.862Z,42.56
2022-09-22T22:08:16.174Z,42.68
2022-09-22T22:10:44.540Z,42.79
2022-09-22T22:13:13.009Z,42.71
2022-09-22T22:15:41.418Z,42.85
2022-09-22T22:18:11.145Z,42.80
2022-09-22T22:20:39.866Z,43.00
2022-09-22T22:23:09.597Z,43.07
2022-09-22T22:25:38.271Z,43.14
2022-09-22T22:28:08.673Z,43.16
2022-09-22T22:30:42.108Z,43.32
2022-09-22T22:33:12.457Z,43.33
2022-09-22T22:35:49.381Z,43.33
2022-09-22T22:38:17.798Z,43.51
2022-09-22T22:40:46.833Z,43.38
2022-09-22T22:43:15.990Z,43.51
2022-09-22T22:45:45.445Z,43.62
2022-09-22T22:48:16.675Z,43.66
2022-09-22T22:50:45.301Z,43.71
2022-09-22T22:53:14.955Z,43.78
2022-09-22T22:55:59.999Z,43.82
2022-09-22T22:58:31.488Z,43.48
2022-09-22T23:01:10.108Z,43.97
2022-09-22T23:03:42.206Z,44.03
2022-09-22T23:06:12.179Z,44.17
2022-09-22T23:08:41.531Z,44.19
2022-09-22T23:11:13.332Z,44.40
2022-09-22T23:13:47.946Z,44.27
2022-09-22T23:16:16.637Z,44.66
2022-09-22T23:18:46.821Z,44.70
2022-09-22T23:21:17.956Z,44.90
2022-09-22T23:23:47.132Z,44.78
2022-09-22T23:26:17.618Z,44.94
2022-09-22T23:28:46.486Z,44.83
2022-09-22T23:31:18.176Z,44.93
2022-09-22T23:33:50.788Z,45.01
2022-09-22T23:36:22.527Z,45.10
2022-09-22T23:38:55.322Z,45.02
2022-09-22T23:41:24.532Z,45.15
2022-09-22T23:43:55.879Z,45.01
2022-09-22T23:46:24.633Z,45.14
2022-09-22T23:48:55.562Z,45.18
2022-09-22T23:51:24.183Z,45.16
2022-09-22T23:53:52.859Z,45.14
2022-09-22T23:56:21.175Z,45.33
2022-09-22T23:58:49.897Z,45.30
